Main page
METAR-TAF:

METAR-TAF

Airports :

Ohrid "St. Paul the Apostle" Airport

Ohrid, Macedonia

latitude: 41-07N, longitude: 020-48E, elevation: 760 m

Current weather observation

The report was made 20 minutes ago, at 18:00 UTC
Wind 3 kt from the Northeast
Temperature 23°C
Humidity 38%
Pressure 1021 hPa
Visibility 10 km or more
Few clouds at a height of 4000 ft
Broken clouds at a height of 10000 ft

METAR: LWOH 161800Z 05003KT 9999 FEW040 BKN100 23/08 Q1021

Time: 20:20 (18:20 UTC)

Forecast

The report was made 1 hour and 5 minutes ago, at 17:15 UTC
Forecast valid from 16 at 18 UTC to 17 at 18 UTC
Wind 5 kt from the Northwest
Visibility 10 km or more
Few clouds at a height of 4000 ft
Becoming
from 17 at 09 UTC to 17 at 11 UTC
Wind 10 kt from the West/Southwest
Temporary
from 17 at 12 UTC to 17 at 16 UTC
Wind 15 kt from the West/Southwest with gusts up to 30 kt

TAF: LWOH 161715Z 1618/1718 32005KT 9999 FEW040 BECMG 1709/1711 24010KT TEMPO 1712/1716 24015G30KT

Weather observations and forecasts of more than 4000 airports (METAR and TAF reports).

The available stations are represented by yellow and red dots on the map.

Hover mouse over dot to see the name of the station.

Then click to see weather observations and forecasts.

To change the map : click on the green buttons with a black cross to zoom in, on the green button with a dash to zoom out, or on the green arrows for adjacent maps.


METAR-TAF: